createdAt,value
2022-08-05T00:00:16.219Z,20.32
2022-08-05T00:02:44.118Z,20.26
2022-08-05T00:06:02.039Z,20.12
2022-08-05T00:08:32.794Z,20.10
2022-08-05T00:10:56.951Z,20.01
2022-08-05T00:13:38.174Z,19.97
2022-08-05T00:16:08.606Z,19.92
2022-08-05T00:18:36.468Z,19.89
2022-08-05T00:21:06.873Z,19.87
2022-08-05T00:23:45.798Z,19.91
2022-08-05T00:26:15.089Z,19.92
2022-08-05T00:28:45.723Z,19.92
2022-08-05T00:31:13.057Z,19.89
2022-08-05T00:34:54.617Z,19.85
2022-08-05T00:37:12.908Z,19.86
2022-08-05T00:39:14.338Z,19.92
2022-08-05T00:41:52.206Z,19.97
2022-08-05T00:44:31.018Z,19.94
2022-08-05T00:47:02.005Z,19.92
2022-08-05T00:49:49.351Z,19.92
2022-08-05T00:52:18.133Z,19.91
2022-08-05T00:54:55.981Z,19.83
2022-08-05T00:57:25.370Z,19.81
2022-08-05T00:59:58.444Z,19.83
2022-08-05T01:02:25.294Z,19.71
2022-08-05T01:04:52.515Z,19.83
2022-08-05T01:07:19.256Z,19.92
2022-08-05T01:09:46.073Z,19.93
2022-08-05T01:12:24.974Z,19.94
2022-08-05T01:15:05.140Z,19.92
2022-08-05T01:17:53.782Z,19.84
2022-08-05T01:20:40.679Z,19.68
2022-08-05T01:23:23.194Z,19.71
2022-08-05T01:26:11.347Z,19.92
2022-08-05T01:28:51.372Z,19.90
2022-08-05T01:31:44.781Z,19.85
2022-08-05T01:34:17.774Z,19.77
2022-08-05T01:36:54.859Z,19.95
2022-08-05T01:39:45.664Z,19.98
2022-08-05T01:42:13.841Z,19.85
2022-08-05T01:44:44.321Z,19.65
2022-08-05T01:47:22.413Z,19.74
2022-08-05T01:50:01.359Z,19.80
2022-08-05T01:52:29.749Z,19.74
2022-08-05T01:55:00.482Z,19.64
2022-08-05T01:58:09.487Z,19.59
2022-08-05T02:00:18.846Z,19.55
2022-08-05T02:02:54.479Z,19.45
2022-08-05T02:05:25.216Z,19.36
2022-08-05T02:08:01.377Z,19.38
2022-08-05T02:10:33.768Z,19.41
2022-08-05T02:13:16.218Z,19.41
2022-08-05T02:16:05.639Z,19.37
2022-08-05T02:18:48.054Z,19.25
2022-08-05T02:21:43.310Z,19.26
2022-08-05T02:24:23.189Z,19.25
2022-08-05T02:26:56.358Z,19.25
2022-08-05T02:29:58.757Z,19.20
2022-08-05T02:32:23.828Z,19.17
2022-08-05T02:35:09.565Z,19.16
2022-08-05T02:37:46.515Z,19.10
2022-08-05T02:40:21.512Z,19.00
2022-08-05T02:42:53.085Z,18.97
2022-08-05T02:45:23.934Z,18.97
2022-08-05T02:48:06.970Z,18.91
2022-08-05T02:50:43.951Z,18.84
2022-08-05T02:53:18.762Z,18.84
2022-08-05T02:55:54.265Z,18.72
2022-08-05T02:58:26.751Z,18.82
2022-08-05T03:00:56.660Z,18.82
2022-08-05T03:03:23.959Z,18.84
2022-08-05T03:06:55.754Z,18.77
2022-08-05T03:08:42.682Z,18.76
2022-08-05T03:11:57.120Z,18.78
2022-08-05T03:14:13.717Z,18.75
2022-08-05T03:16:40.753Z,18.73
2022-08-05T03:19:16.980Z,18.67
2022-08-05T03:21:54.331Z,18.64
2022-08-05T03:24:26.931Z,18.53
2022-08-05T03:26:59.506Z,18.52
2022-08-05T03:29:44.435Z,18.45
2022-08-05T03:32:15.424Z,18.43
2022-08-05T03:34:50.763Z,18.42
2022-08-05T03:37:19.565Z,18.38
2022-08-05T03:39:59.379Z,18.36
2022-08-05T03:42:29.052Z,18.24
2022-08-05T03:44:58.832Z,18.25
2022-08-05T03:47:25.908Z,18.34
2022-08-05T03:49:57.764Z,18.47
2022-08-05T03:52:37.634Z,18.49
2022-08-05T03:56:04.837Z,18.42
2022-08-05T03:58:19.105Z,18.52
2022-08-05T04:00:51.586Z,18.56
2022-08-05T04:03:28.266Z,18.55
2022-08-05T04:05:58.053Z,18.57
2022-08-05T04:08:34.997Z,18.64
2022-08-05T04:11:07.538Z,18.73
2022-08-05T04:13:51.376Z,18.72
2022-08-05T04:16:24.217Z,18.87
2022-08-05T04:18:54.304Z,19.00
2022-08-05T04:22:10.284Z,19.02
2022-08-05T04:24:09.113Z,19.19
2022-08-05T04:26:45.805Z,19.33
2022-08-05T04:29:13.442Z,19.49
2022-08-05T04:31:41.352Z,19.57
2022-08-05T04:34:19.274Z,19.70
2022-08-05T04:36:56.958Z,19.87
2022-08-05T04:39:24.329Z,20.01
2022-08-05T04:41:56.944Z,20.15
2022-08-05T04:44:30.091Z,20.30
2022-08-05T04:47:09.648Z,20.53
2022-08-05T04:50:01.331Z,20.65
2022-08-05T04:52:24.500Z,20.80
2022-08-05T04:54:54.763Z,20.97
2022-08-05T04:57:28.781Z,21.14
2022-08-05T04:59:57.033Z,21.28
2022-08-05T05:02:41.499Z,21.41
2022-08-05T05:05:26.221Z,21.55
2022-08-05T05:08:06.122Z,21.68
2022-08-05T05:10:47.295Z,21.80
2022-08-05T05:13:23.243Z,21.96
2022-08-05T05:15:57.927Z,22.07
2022-08-05T05:18:33.791Z,22.23
2022-08-05T05:21:03.337Z,22.34
2022-08-05T05:23:39.127Z,22.44
2022-08-05T05:26:17.749Z,22.55
2022-08-05T05:28:45.060Z,22.66
2022-08-05T05:31:19.654Z,22.74
2022-08-05T05:34:01.682Z,22.79
2022-08-05T05:36:37.527Z,22.90
2022-08-05T05:39:05.802Z,23.00
2022-08-05T05:41:54.267Z,23.03
2022-08-05T05:44:36.297Z,23.07
2022-08-05T05:47:13.232Z,23.16
2022-08-05T05:49:56.736Z,23.23
2022-08-05T05:52:31.418Z,23.30
2022-08-05T05:55:07.316Z,23.34
2022-08-05T05:57:52.310Z,23.40
2022-08-05T06:00:21.899Z,23.43
2022-08-05T06:02:58.629Z,23.50
2022-08-05T06:05:25.701Z,23.59
2022-08-05T06:08:01.413Z,23.65
2022-08-05T06:10:36.595Z,23.68
2022-08-05T06:13:05.075Z,23.76
2022-08-05T06:16:30.016Z,23.92
2022-08-05T06:18:19.628Z,23.95
2022-08-05T06:20:58.344Z,24.00
2022-08-05T06:23:43.674Z,24.04
2022-08-05T06:26:13.723Z,24.10
2022-08-05T06:28:48.617Z,24.20
2022-08-05T06:31:17.980Z,24.29
2022-08-05T06:34:07.297Z,24.33
2022-08-05T06:36:57.050Z,24.31
2022-08-05T06:39:22.288Z,24.38
2022-08-05T06:41:53.736Z,24.43
2022-08-05T06:44:22.059Z,24.52
2022-08-05T06:46:50.719Z,24.54
2022-08-05T06:49:18.788Z,24.48
2022-08-05T06:51:48.036Z,24.53
2022-08-05T06:54:25.950Z,24.62
2022-08-05T06:56:55.143Z,24.67
2022-08-05T06:59:42.347Z,24.63
2022-08-05T07:02:22.837Z,24.57
2022-08-05T07:04:50.437Z,24.58
2022-08-05T07:07:35.617Z,24.61
2022-08-05T07:10:06.549Z,24.77
2022-08-05T07:12:52.688Z,24.83
2022-08-05T07:16:01.789Z,24.94
2022-08-05T07:18:30.145Z,25.04
2022-08-05T07:20:58.590Z,24.96
2022-08-05T07:23:33.439Z,25.05
2022-08-05T07:26:05.470Z,25.24
2022-08-05T07:28:35.673Z,25.30
2022-08-05T07:31:03.939Z,25.32
2022-08-05T07:33:36.420Z,25.37
2022-08-05T07:36:19.876Z,25.49
2022-08-05T07:38:47.561Z,25.55
2022-08-05T07:42:13.531Z,25.64
2022-08-05T07:44:12.133Z,25.67
2022-08-05T07:46:45.963Z,25.77
2022-08-05T07:49:16.239Z,25.72
2022-08-05T07:51:53.290Z,25.78
2022-08-05T07:54:30.843Z,25.85
2022-08-05T07:57:01.641Z,25.88
2022-08-05T07:59:41.887Z,25.87
2022-08-05T08:02:16.827Z,25.87
2022-08-05T08:04:47.318Z,25.88
2022-08-05T08:07:14.967Z,25.83
2022-08-05T08:09:42.490Z,25.85
2022-08-05T08:12:27.400Z,25.88
2022-08-05T08:14:56.580Z,25.92
2022-08-05T08:17:23.901Z,25.91
2022-08-05T08:20:44.494Z,25.92
2022-08-05T08:22:41.591Z,26.04
2022-08-05T08:25:15.739Z,26.05
2022-08-05T08:27:47.633Z,26.14
2022-08-05T08:30:29.475Z,26.24
2022-08-05T08:33:04.534Z,26.33
2022-08-05T08:35:41.607Z,26.50
2022-08-05T08:38:32.298Z,26.61
2022-08-05T08:41:10.178Z,26.58
2022-08-05T08:45:22.307Z,26.54
2022-08-05T08:46:31.282Z,26.49
2022-08-05T08:49:17.482Z,26.48
2022-08-05T08:52:04.127Z,26.57
2022-08-05T08:54:42.261Z,26.77
2022-08-05T08:57:11.262Z,26.87
2022-08-05T08:59:38.949Z,27.01
2022-08-05T09:02:09.065Z,27.12
2022-08-05T09:04:58.421Z,27.15
2022-08-05T09:07:28.775Z,27.11
2022-08-05T09:09:56.111Z,27.11
2022-08-05T09:12:27.417Z,27.11
2022-08-05T09:14:59.626Z,27.30
2022-08-05T09:17:41.393Z,27.32
2022-08-05T09:20:13.325Z,27.42
2022-08-05T09:23:07.966Z,27.33
2022-08-05T09:26:01.720Z,27.22
2022-08-05T09:28:32.317Z,27.20
2022-08-05T09:31:44.071Z,27.25
2022-08-05T09:34:16.747Z,27.27
2022-08-05T09:36:55.681Z,27.37
2022-08-05T09:39:41.346Z,27.46
2022-08-05T09:42:22.978Z,27.51
2022-08-05T09:44:56.352Z,27.53
2022-08-05T09:47:26.123Z,27.58
2022-08-05T09:50:02.459Z,27.59
2022-08-05T09:52:32.918Z,27.63
2022-08-05T09:55:58.411Z,27.69
2022-08-05T09:57:59.868Z,27.70
2022-08-05T10:00:30.411Z,27.72
2022-08-05T10:02:58.379Z,27.81
2022-08-05T10:05:28.942Z,27.89
2022-08-05T10:08:36.791Z,27.99
2022-08-05T10:10:54.378Z,28.10
2022-08-05T10:13:45.606Z,28.19
2022-08-05T10:16:30.671Z,28.32
2022-08-05T10:19:00.031Z,28.38
2022-08-05T10:21:27.682Z,28.45
2022-08-05T10:24:09.039Z,28.63
2022-08-05T10:26:51.686Z,28.71
2022-08-05T10:30:05.693Z,28.76
2022-08-05T10:32:52.275Z,28.84
2022-08-05T10:35:00.543Z,28.93
2022-08-05T10:37:40.233Z,28.98
2022-08-05T10:40:27.799Z,29.09
2022-08-05T10:43:01.322Z,29.12
2022-08-05T10:45:39.985Z,29.11
2022-08-05T10:48:52.400Z,29.19
2022-08-05T10:51:23.167Z,29.32
2022-08-05T10:54:02.089Z,29.51
2022-08-05T10:56:52.868Z,29.61
2022-08-05T11:00:03.372Z,29.78
2022-08-05T11:02:38.345Z,29.92
2022-08-05T11:05:05.321Z,30.10
2022-08-05T11:07:33.267Z,30.16
2022-08-05T11:10:27.732Z,30.22
2022-08-05T11:12:57.597Z,30.31
2022-08-05T11:16:00.663Z,30.43
2022-08-05T11:18:32.352Z,30.57
2022-08-05T11:21:02.292Z,30.64
2022-08-05T11:24:04.719Z,30.80
2022-08-05T11:26:43.440Z,30.97
2022-08-05T11:29:40.852Z,31.08
2022-08-05T11:32:28.426Z,31.38
2022-08-05T11:34:57.420Z,31.53
2022-08-05T11:38:28.526Z,31.75
2022-08-05T11:41:13.844Z,31.96
2022-08-05T11:44:05.962Z,32.25
2022-08-05T11:46:58.584Z,32.39
2022-08-05T11:49:26.035Z,32.31
2022-08-05T11:51:57.301Z,32.29
2022-08-05T11:54:32.756Z,32.38
2022-08-05T11:57:08.644Z,32.55
2022-08-05T11:59:50.786Z,32.58
2022-08-05T12:02:30.081Z,32.63
2022-08-05T12:04:59.188Z,32.52
2022-08-05T12:08:03.702Z,32.51
2022-08-05T12:10:19.967Z,32.34
2022-08-05T12:12:58.506Z,32.31
2022-08-05T12:15:33.965Z,32.22
2022-08-05T12:18:10.559Z,32.17
2022-08-05T12:20:39.095Z,32.19
2022-08-05T12:23:12.396Z,32.17
2022-08-05T12:25:53.612Z,32.08
2022-08-05T12:28:37.671Z,31.95
2022-08-05T12:31:05.452Z,31.92
2022-08-05T12:33:36.651Z,31.95
2022-08-05T12:36:09.560Z,31.98
2022-08-05T12:38:39.702Z,32.02
2022-08-05T12:41:13.388Z,32.04
2022-08-05T12:43:53.898Z,32.03
2022-08-05T12:46:29.462Z,32.00
2022-08-05T12:49:01.297Z,32.01
2022-08-05T12:52:12.831Z,32.01
2022-08-05T12:54:36.665Z,31.98
2022-08-05T12:57:09.227Z,32.00
2022-08-05T13:02:02.757Z,31.98
2022-08-05T13:02:36.475Z,32.00
2022-08-05T13:05:06.328Z,32.00
2022-08-05T13:07:59.720Z,31.97
2022-08-05T13:10:20.478Z,31.97
2022-08-05T13:12:51.333Z,31.96
2022-08-05T13:15:41.510Z,31.92
2022-08-05T13:18:20.142Z,31.98
2022-08-05T13:20:49.848Z,32.06
2022-08-05T13:23:22.033Z,32.11
2022-08-05T13:25:52.267Z,32.09
2022-08-05T13:28:27.515Z,32.07
2022-08-05T13:30:54.413Z,32.10
2022-08-05T13:34:21.507Z,32.13
2022-08-05T13:36:09.345Z,32.10
2022-08-05T13:38:38.287Z,32.13
2022-08-05T13:41:10.911Z,32.16
2022-08-05T13:43:44.591Z,32.18
2022-08-05T13:47:01.789Z,32.23
2022-08-05T13:49:11.735Z,32.23
2022-08-05T13:51:41.057Z,32.21
2022-08-05T13:54:12.059Z,32.21
2022-08-05T13:56:50.784Z,32.20
2022-08-05T13:59:24.286Z,32.20
2022-08-05T14:01:58.699Z,32.23
2022-08-05T14:04:52.728Z,32.30
2022-08-05T14:07:59.657Z,32.35
2022-08-05T14:10:28.803Z,32.40
2022-08-05T14:12:58.452Z,32.36
2022-08-05T14:16:08.774Z,32.40
2022-08-05T14:18:17.412Z,32.48
2022-08-05T14:20:49.180Z,32.50
2022-08-05T14:23:25.506Z,32.43
2022-08-05T14:25:59.127Z,32.60
2022-08-05T14:28:30.573Z,32.60
2022-08-05T14:30:59.031Z,32.53
2022-08-05T14:33:25.911Z,32.56
2022-08-05T14:35:54.331Z,32.53
2022-08-05T14:38:33.186Z,32.64
2022-08-05T14:41:06.370Z,32.78
2022-08-05T14:43:59.993Z,32.58
2022-08-05T14:46:24.557Z,32.58
2022-08-05T14:49:06.307Z,32.52
2022-08-05T14:51:37.589Z,32.40
2022-08-05T14:54:28.224Z,32.32
2022-08-05T14:56:56.016Z,32.31
2022-08-05T14:59:23.091Z,32.29
2022-08-05T15:01:50.491Z,32.31
2022-08-05T15:04:20.709Z,32.36
2022-08-05T15:06:51.563Z,32.33
2022-08-05T15:09:51.681Z,32.32
2022-08-05T15:12:09.509Z,32.37
2022-08-05T15:14:49.500Z,32.35
2022-08-05T15:17:44.848Z,32.35
2022-08-05T15:20:17.055Z,32.30
2022-08-05T15:22:54.354Z,32.30
2022-08-05T15:25:50.933Z,32.44
2022-08-05T15:28:14.383Z,32.51
2022-08-05T15:30:43.735Z,32.37
2022-08-05T15:33:12.986Z,32.29
2022-08-05T15:35:59.766Z,32.21
2022-08-05T15:38:36.002Z,32.26
2022-08-05T15:41:22.879Z,32.42
2022-08-05T15:43:50.733Z,32.88
2022-08-05T15:46:19.901Z,32.60
2022-08-05T15:48:54.840Z,32.41
2022-08-05T15:52:09.823Z,32.32
2022-08-05T15:54:16.070Z,32.27
2022-08-05T15:56:44.183Z,32.30
2022-08-05T15:59:20.016Z,32.27
2022-08-05T16:01:52.587Z,32.29
2022-08-05T16:04:19.897Z,32.26
2022-08-05T16:06:46.697Z,32.25
2022-08-05T16:09:14.008Z,32.24
2022-08-05T16:11:50.929Z,32.26
2022-08-05T16:14:20.191Z,32.21
2022-08-05T16:16:47.482Z,32.16
2022-08-05T16:19:25.278Z,32.06
2022-08-05T16:22:03.109Z,32.03
2022-08-05T16:24:40.381Z,32.00
2022-08-05T16:27:17.912Z,31.96
2022-08-05T16:29:50.299Z,31.94
2022-08-05T16:32:23.239Z,31.88
2022-08-05T16:34:55.658Z,31.83
2022-08-05T16:38:01.915Z,31.78
2022-08-05T16:40:25.016Z,31.75
2022-08-05T16:42:55.709Z,31.73
2022-08-05T16:46:04.011Z,31.71
2022-08-05T16:48:10.381Z,31.69
2022-08-05T16:50:37.579Z,31.68
2022-08-05T16:53:12.595Z,31.81
2022-08-05T16:55:50.719Z,32.13
2022-08-05T16:58:19.865Z,32.02
2022-08-05T17:00:48.141Z,31.85
2022-08-05T17:03:20.245Z,31.72
2022-08-05T17:05:53.681Z,31.64
2022-08-05T17:08:33.599Z,31.54
2022-08-05T17:11:04.191Z,31.46
2022-08-05T17:13:37.692Z,31.39
2022-08-05T17:16:29.738Z,31.34
2022-08-05T17:18:55.728Z,31.27
2022-08-05T17:21:23.558Z,31.18
2022-08-05T17:24:03.807Z,31.11
2022-08-05T17:26:33.944Z,31.02
2022-08-05T17:29:01.141Z,30.94
2022-08-05T17:31:56.451Z,30.83
2022-08-05T17:34:21.309Z,30.72
2022-08-05T17:36:57.200Z,30.60
2022-08-05T17:39:33.265Z,30.53
2022-08-05T17:42:17.295Z,30.38
2022-08-05T17:44:50.263Z,30.28
2022-08-05T17:47:22.855Z,30.20
2022-08-05T17:50:04.077Z,30.16
2022-08-05T17:52:52.626Z,30.11
2022-08-05T17:55:20.023Z,30.05
2022-08-05T17:57:50.056Z,30.03
2022-08-05T18:00:17.513Z,29.92
2022-08-05T18:02:47.616Z,29.88
2022-08-05T18:05:16.997Z,29.66
2022-08-05T18:07:44.701Z,29.42
2022-08-05T18:10:20.509Z,29.36
2022-08-05T18:12:49.878Z,29.12
2022-08-05T18:15:16.826Z,28.92
2022-08-05T18:18:01.597Z,28.79
2022-08-05T18:20:32.526Z,28.55
2022-08-05T18:23:00.739Z,28.37
2022-08-05T18:25:39.071Z,28.32
2022-08-05T18:28:07.382Z,28.07
2022-08-05T18:30:36.280Z,27.97
2022-08-05T18:33:06.314Z,27.89
2022-08-05T18:36:00.774Z,27.74
2022-08-05T18:38:26.418Z,27.60
2022-08-05T18:41:55.879Z,27.58
2022-08-05T18:43:42.931Z,27.59
2022-08-05T18:46:19.802Z,27.52
2022-08-05T18:48:52.050Z,27.40
2022-08-05T18:52:05.294Z,27.37
2022-08-05T18:54:32.130Z,27.25
2022-08-05T18:57:02.648Z,27.14
2022-08-05T18:59:44.142Z,26.96
2022-08-05T19:02:27.963Z,26.92
2022-08-05T19:05:02.395Z,26.87
2022-08-05T19:07:49.671Z,26.83
2022-08-05T19:10:28.036Z,26.73
2022-08-05T19:12:56.047Z,26.64
2022-08-05T19:15:56.718Z,26.44
2022-08-05T19:18:20.883Z,26.21
2022-08-05T19:20:52.431Z,26.18
2022-08-05T19:24:03.725Z,26.22
2022-08-05T19:26:09.417Z,26.16
2022-08-05T19:28:42.046Z,26.10
2022-08-05T19:31:13.653Z,25.94
2022-08-05T19:33:48.655Z,26.05
2022-08-05T19:36:25.253Z,26.03
2022-08-05T19:38:54.552Z,25.87
2022-08-05T19:41:22.025Z,25.81
2022-08-05T19:44:13.119Z,25.72
2022-08-05T19:46:40.746Z,25.62
2022-08-05T19:49:07.968Z,25.47
2022-08-05T19:52:09.191Z,25.40
2022-08-05T19:54:31.129Z,25.28
2022-08-05T19:57:07.638Z,25.29
2022-08-05T19:59:54.643Z,25.33
2022-08-05T20:02:31.284Z,25.22
2022-08-05T20:04:59.741Z,25.10
2022-08-05T20:07:46.270Z,24.93
2022-08-05T20:10:16.215Z,24.80
2022-08-05T20:12:45.926Z,24.78
2022-08-05T20:15:13.974Z,24.67
2022-08-05T20:17:40.676Z,24.58
2022-08-05T20:20:11.139Z,24.62
2022-08-05T20:22:37.987Z,24.62
2022-08-05T20:25:08.866Z,24.63
2022-08-05T20:27:41.651Z,24.51
2022-08-05T20:30:10.379Z,24.36
2022-08-05T20:32:37.283Z,24.24
2022-08-05T20:35:12.356Z,24.11
2022-08-05T20:38:05.321Z,24.02
2022-08-05T20:40:27.921Z,24.04
2022-08-05T20:43:00.023Z,24.03
2022-08-05T20:45:56.017Z,24.08
2022-08-05T20:48:16.400Z,24.10
2022-08-05T20:50:45.385Z,24.02
2022-08-05T20:53:16.298Z,23.95
2022-08-05T20:56:09.167Z,23.85
2022-08-05T20:58:38.018Z,23.76
2022-08-05T21:01:06.119Z,23.72
2022-08-05T21:03:34.965Z,23.66
2022-08-05T21:06:04.292Z,23.56
2022-08-05T21:08:51.250Z,23.57
2022-08-05T21:12:10.352Z,23.51
2022-08-05T21:14:06.136Z,23.49
2022-08-05T21:16:33.812Z,23.48
2022-08-05T21:19:03.723Z,23.43
2022-08-05T21:21:43.800Z,23.40
2022-08-05T21:24:12.971Z,23.20
2022-08-05T21:26:41.423Z,23.26
2022-08-05T21:29:10.119Z,23.25
2022-08-05T21:31:41.130Z,23.21
2022-08-05T21:34:10.583Z,23.13
2022-08-05T21:36:38.524Z,23.06
2022-08-05T21:39:05.495Z,22.99
2022-08-05T21:41:35.654Z,22.97
2022-08-05T21:44:04.883Z,22.93
2022-08-05T21:46:34.216Z,22.87
2022-08-05T21:50:00.277Z,22.83
2022-08-05T21:52:28.526Z,22.80
2022-08-05T21:55:13.890Z,22.75
2022-08-05T21:58:05.091Z,22.64
2022-08-05T22:00:50.885Z,22.71
2022-08-05T22:03:51.872Z,22.91
2022-08-05T22:06:13.665Z,22.99
2022-08-05T22:08:43.418Z,23.02
2022-08-05T22:11:34.734Z,23.00
2022-08-05T22:14:34.176Z,22.97
2022-08-05T22:16:57.043Z,22.85
2022-08-05T22:20:00.302Z,22.77
2022-08-05T22:22:27.209Z,22.73
2022-08-05T22:25:21.665Z,22.69
2022-08-05T22:28:08.438Z,22.63
2022-08-05T22:30:55.286Z,22.61
2022-08-05T22:33:57.820Z,22.59
2022-08-05T22:36:14.461Z,22.54
2022-08-05T22:38:43.195Z,22.50
2022-08-05T22:41:10.692Z,22.40
2022-08-05T22:43:38.499Z,22.29
2022-08-05T22:46:13.098Z,22.26
2022-08-05T22:48:41.842Z,22.27
2022-08-05T22:51:22.858Z,22.26
2022-08-05T22:53:55.809Z,22.25
2022-08-05T22:56:30.337Z,22.33
2022-08-05T22:59:02.899Z,22.40
2022-08-05T23:02:05.227Z,22.43
2022-08-05T23:04:18.778Z,22.35
2022-08-05T23:06:45.956Z,22.21
2022-08-05T23:09:27.185Z,22.22
2022-08-05T23:12:01.828Z,22.08
2022-08-05T23:14:32.234Z,22.12
2022-08-05T23:17:18.794Z,22.13
2022-08-05T23:19:57.662Z,22.01
2022-08-05T23:22:27.487Z,22.09
2022-08-05T23:24:55.284Z,22.01
2022-08-05T23:27:22.731Z,22.02
2022-08-05T23:29:50.862Z,22.00
2022-08-05T23:32:22.924Z,22.08
2022-08-05T23:34:50.811Z,22.11
2022-08-05T23:37:18.256Z,21.97
2022-08-05T23:39:54.361Z,21.89
2022-08-05T23:42:29.187Z,21.81
2022-08-05T23:44:57.213Z,21.71
2022-08-05T23:47:24.985Z,21.74
2022-08-05T23:49:55.640Z,21.68
2022-08-05T23:52:27.790Z,21.64
2022-08-05T23:54:57.615Z,21.60
2022-08-05T23:57:28.272Z,21.57
